createdAt,value
2019-05-25T00:02:54.791Z,6.60
2019-05-25T00:05:27.645Z,6.42
2019-05-25T00:08:00.323Z,6.85
2019-05-25T00:10:32.862Z,6.97
2019-05-25T00:13:05.339Z,7.90
2019-05-25T00:15:37.808Z,7.53
2019-05-25T00:18:10.435Z,7.87
2019-05-25T00:20:43.010Z,6.70
2019-05-25T00:23:17.311Z,7.33
2019-05-25T00:25:50.276Z,6.90
2019-05-25T00:28:22.772Z,7.30
2019-05-25T00:30:55.297Z,7.00
2019-05-25T00:33:27.877Z,6.77
2019-05-25T00:36:00.471Z,7.58
2019-05-25T00:38:33.374Z,6.67
2019-05-25T00:41:05.577Z,6.92
2019-05-25T00:43:44.283Z,7.67
2019-05-25T00:48:49.654Z,8.10
2019-05-25T00:51:22.366Z,7.33
2019-05-25T00:53:54.823Z,7.70
2019-05-25T00:56:29.164Z,8.05
2019-05-25T00:59:01.626Z,7.67
2019-05-25T01:01:34.286Z,7.70
2019-05-25T01:04:06.890Z,8.00
2019-05-25T01:06:39.785Z,7.97
2019-05-25T01:09:12.320Z,7.80
2019-05-25T01:11:46.256Z,8.63
2019-05-25T01:14:18.643Z,8.45
2019-05-25T01:16:51.370Z,7.96
2019-05-25T01:19:24.054Z,8.87
2019-05-25T01:21:56.708Z,7.97
2019-05-25T01:24:43.420Z,7.37
2019-05-25T01:27:03.606Z,7.58
2019-05-25T01:29:36.325Z,8.65
2019-05-25T01:32:09.309Z,7.20
2019-05-25T01:34:41.759Z,8.00
2019-05-25T01:37:17.297Z,8.18
2019-05-25T01:39:49.701Z,8.53
2019-05-25T01:42:22.582Z,8.83
2019-05-25T01:44:55.298Z,8.63
2019-05-25T01:47:28.367Z,8.23
2019-05-25T01:50:00.549Z,8.73
2019-05-25T01:52:34.298Z,8.70
2019-05-25T01:55:09.293Z,9.83
2019-05-25T01:57:41.835Z,9.15
2019-05-25T02:02:46.879Z,8.48
2019-05-25T02:05:19.779Z,8.80
2019-05-25T02:07:52.818Z,8.35
2019-05-25T02:10:26.864Z,8.33
2019-05-25T02:12:59.430Z,8.28
2019-05-25T02:15:32.283Z,8.75
2019-05-25T02:18:04.786Z,8.03
2019-05-25T02:20:38.870Z,8.10
2019-05-25T02:23:11.509Z,6.90
2019-05-25T02:25:43.840Z,7.90
2019-05-25T02:28:17.195Z,7.90
2019-05-25T02:30:50.766Z,7.37
2019-05-25T02:33:23.331Z,8.23
2019-05-25T02:35:55.715Z,7.45
2019-05-25T02:38:28.294Z,8.73
2019-05-25T02:41:01.345Z,8.60
2019-05-25T02:43:33.807Z,7.90
2019-05-25T02:46:06.601Z,8.08
2019-05-25T02:48:39.282Z,8.55
2019-05-25T02:51:14.974Z,8.30
2019-05-25T02:53:47.647Z,7.72
2019-05-25T02:56:20.289Z,8.15
2019-05-25T02:58:53.329Z,8.00
2019-05-25T03:01:26.129Z,7.97
2019-05-25T03:03:58.661Z,7.72
2019-05-25T03:06:31.565Z,7.95
2019-05-25T03:09:07.300Z,7.78
2019-05-25T03:11:41.797Z,8.10
2019-05-25T03:14:19.300Z,8.68
2019-05-25T03:16:51.817Z,7.84
2019-05-25T03:19:24.389Z,8.03
2019-05-25T03:21:56.726Z,8.90
2019-05-25T03:24:29.341Z,8.85
2019-05-25T03:27:02.294Z,8.63
2019-05-25T03:29:35.298Z,8.03
2019-05-25T03:32:08.027Z,7.92
2019-05-25T03:34:42.410Z,8.53
2019-05-25T03:37:15.362Z,8.13
2019-05-25T03:39:48.794Z,8.23
2019-05-25T03:42:21.495Z,8.93
2019-05-25T03:44:55.429Z,7.78
2019-05-25T03:47:28.291Z,8.00
2019-05-25T03:50:01.826Z,8.15
2019-05-25T03:52:34.369Z,7.30
2019-05-25T03:55:11.282Z,7.83
2019-05-25T03:57:43.883Z,8.70
2019-05-25T04:00:21.793Z,8.55
2019-05-25T04:02:54.302Z,8.63
2019-05-25T04:05:26.733Z,8.43
2019-05-25T04:07:59.293Z,8.25
2019-05-25T04:10:33.521Z,8.50
2019-05-25T04:13:06.391Z,8.20
2019-05-25T04:15:41.867Z,8.18
2019-05-25T04:18:17.537Z,9.13
2019-05-25T04:20:51.830Z,8.58
2019-05-25T04:23:24.285Z,7.56
2019-05-25T04:25:56.867Z,7.87
2019-05-25T04:28:29.333Z,8.55
2019-05-25T04:31:03.294Z,8.10
2019-05-25T04:33:35.630Z,8.28
2019-05-25T04:36:39.847Z,8.70
2019-05-25T04:39:12.298Z,7.80
2019-05-25T04:41:44.605Z,7.83
2019-05-25T04:44:18.295Z,7.84
2019-05-25T04:46:52.395Z,8.64
2019-05-25T04:49:24.734Z,8.65
2019-05-25T04:51:57.339Z,8.83
2019-05-25T04:57:01.347Z,7.78
2019-05-25T04:59:33.732Z,7.65
2019-05-25T05:02:06.432Z,7.45
2019-05-25T05:04:40.371Z,8.55
2019-05-25T05:07:12.685Z,7.97
2019-05-25T05:09:45.280Z,9.03
2019-05-25T05:12:18.405Z,8.60
2019-05-25T05:14:50.803Z,8.08
2019-05-25T05:17:23.286Z,7.00
2019-05-25T05:19:55.604Z,7.72
2019-05-25T05:22:28.283Z,7.95
2019-05-25T05:25:00.657Z,7.75
2019-05-25T05:27:33.309Z,7.40
2019-05-25T05:30:08.970Z,7.42
2019-05-25T05:32:41.299Z,7.53
2019-05-25T05:35:14.516Z,7.30
2019-05-25T05:37:49.707Z,7.56
2019-05-25T05:40:22.317Z,7.60
2019-05-25T05:42:59.271Z,7.62
2019-05-25T05:45:35.294Z,7.50
2019-05-25T05:48:10.289Z,7.62
2019-05-25T05:50:43.298Z,7.78
2019-05-25T05:53:15.871Z,7.53
2019-05-25T05:55:48.661Z,8.06
2019-05-25T05:58:21.294Z,7.45
2019-05-25T06:00:53.598Z,7.66
2019-05-25T06:03:26.018Z,7.87
2019-05-25T06:05:58.485Z,8.30
2019-05-25T06:08:30.971Z,7.87
2019-05-25T06:11:03.362Z,8.10
2019-05-25T06:13:35.734Z,7.90
2019-05-25T06:16:08.281Z,7.30
2019-05-25T06:18:40.727Z,7.83
2019-05-25T06:21:13.334Z,8.15
2019-05-25T06:23:45.690Z,8.05
2019-05-25T06:26:19.048Z,7.55
2019-05-25T06:28:51.458Z,7.53
2019-05-25T06:31:23.795Z,7.20
2019-05-25T06:33:56.287Z,7.92
2019-05-25T06:36:28.754Z,7.72
2019-05-25T06:39:01.393Z,7.65
2019-05-25T06:41:34.290Z,8.28
2019-05-25T06:44:07.593Z,8.35
2019-05-25T06:49:12.362Z,8.15
2019-05-25T06:51:45.436Z,7.28
2019-05-25T06:54:21.291Z,9.00
2019-05-25T06:59:25.306Z,8.88
2019-05-25T07:04:29.307Z,8.40
2019-05-25T07:07:01.755Z,8.13
2019-05-25T07:09:34.500Z,7.58
2019-05-25T07:12:07.338Z,7.70
2019-05-25T07:14:39.856Z,8.60
2019-05-25T07:17:12.344Z,7.80
2019-05-25T07:19:44.756Z,7.97
2019-05-25T07:22:17.353Z,7.53
2019-05-25T07:24:49.673Z,7.55
2019-05-25T07:27:22.294Z,6.97
2019-05-25T07:29:54.639Z,7.03
2019-05-25T07:32:27.280Z,7.47
2019-05-25T07:34:59.584Z,6.25
2019-05-25T07:37:32.291Z,6.70
2019-05-25T07:40:07.292Z,5.78
2019-05-25T07:42:39.783Z,5.97
2019-05-25T07:45:12.799Z,5.50
2019-05-25T07:47:45.299Z,5.92
2019-05-25T07:50:19.768Z,5.98
2019-05-25T07:52:52.292Z,5.87
2019-05-25T07:55:24.757Z,6.67
2019-05-25T07:57:57.292Z,6.70
2019-05-25T08:00:29.977Z,6.42
2019-05-25T08:03:02.358Z,6.62
2019-05-25T08:05:34.764Z,5.30
2019-05-25T08:08:08.703Z,6.00
2019-05-25T08:10:41.289Z,5.67
2019-05-25T08:13:13.272Z,5.70
2019-05-25T08:15:45.893Z,5.12
2019-05-25T08:18:19.465Z,6.50
2019-05-25T08:20:52.810Z,7.60
2019-05-25T08:23:25.314Z,6.45
2019-05-25T08:25:57.665Z,6.03
2019-05-25T08:28:33.158Z,6.25
2019-05-25T08:31:04.557Z,5.97
2019-05-25T08:33:37.280Z,5.95
2019-05-25T08:36:09.630Z,5.75
2019-05-25T08:38:42.055Z,6.10
2019-05-25T08:41:14.462Z,6.25
2019-05-25T08:43:46.802Z,6.17
2019-05-25T08:48:51.596Z,5.60
2019-05-25T08:53:56.833Z,5.28
2019-05-25T08:56:29.567Z,5.67
2019-05-25T08:59:02.064Z,4.83
2019-05-25T09:01:34.678Z,4.83
2019-05-25T09:04:07.296Z,5.37
2019-05-25T09:06:39.820Z,4.80
2019-05-25T09:09:12.311Z,4.70
2019-05-25T09:11:44.362Z,5.53
2019-05-25T09:14:16.761Z,5.65
2019-05-25T09:16:50.411Z,5.48
2019-05-25T09:19:23.041Z,5.72
2019-05-25T09:22:02.640Z,5.92
2019-05-25T09:24:29.683Z,5.35
2019-05-25T09:27:02.295Z,5.40
2019-05-25T09:29:35.034Z,6.20
2019-05-25T09:32:07.759Z,6.10
2019-05-25T09:34:43.324Z,5.87
2019-05-25T09:37:16.297Z,5.40
2019-05-25T09:39:50.849Z,4.72
2019-05-25T09:42:52.445Z,6.45
2019-05-25T09:45:25.038Z,5.40
2019-05-25T09:47:59.298Z,5.30
2019-05-25T09:50:31.689Z,5.87
2019-05-25T09:53:04.298Z,7.03
2019-05-25T09:55:36.678Z,5.85
2019-05-25T09:58:09.298Z,7.33
2019-05-25T10:00:41.869Z,7.95
2019-05-25T10:03:14.444Z,7.28
2019-05-25T10:05:46.836Z,7.50
2019-05-25T10:08:20.378Z,7.10
2019-05-25T10:10:52.781Z,7.25
2019-05-25T10:13:25.289Z,7.20
2019-05-25T10:15:58.983Z,6.72
2019-05-25T10:18:31.457Z,7.17
2019-05-25T10:21:03.910Z,6.55
2019-05-25T10:23:36.731Z,5.60
2019-05-25T10:26:09.298Z,6.33
2019-05-25T10:28:41.612Z,6.08
2019-05-25T10:31:14.010Z,5.92
2019-05-25T10:33:46.665Z,6.37
2019-05-25T10:39:24.011Z,6.78
2019-05-25T10:41:56.491Z,6.25
2019-05-25T10:44:30.567Z,6.83
2019-05-25T10:47:03.286Z,6.65
2019-05-25T10:49:38.260Z,7.00
2019-05-25T10:52:10.537Z,6.05
2019-05-25T10:54:43.317Z,6.45
2019-05-25T10:57:15.851Z,6.37
2019-05-25T10:59:52.973Z,3.60
2019-05-25T11:02:22.566Z,2.52
2019-05-25T11:04:55.299Z,2.18
2019-05-25T11:07:27.861Z,2.05
2019-05-25T11:12:42.294Z,2.37
2019-05-25T11:15:15.572Z,2.52
2019-05-25T11:18:41.781Z,2.33
2019-05-25T11:23:47.729Z,2.65
2019-05-25T11:28:54.310Z,2.47
2019-05-25T11:31:27.678Z,1.80
2019-05-25T11:34:00.533Z,1.60
2019-05-25T11:36:33.104Z,1.90
2019-05-25T11:39:07.520Z,2.50
2019-05-25T11:41:39.823Z,2.10
2019-05-25T11:44:12.524Z,3.30
2019-05-25T11:46:45.297Z,3.22
2019-05-25T11:49:23.128Z,2.50
2019-05-25T11:52:20.493Z,2.20
2019-05-25T11:55:12.500Z,2.30
2019-05-25T12:01:59.810Z,1.50
2019-05-25T12:04:34.292Z,1.70
2019-05-25T12:07:07.053Z,1.20
2019-05-25T12:09:43.314Z,1.20
2019-05-25T12:12:23.496Z,1.10
2019-05-25T12:16:00.895Z,1.40
2019-05-25T12:18:41.279Z,1.50
2019-05-25T12:21:15.529Z,1.37
2019-05-25T12:23:49.772Z,1.50
2019-05-25T12:26:23.415Z,2.12
2019-05-25T12:28:55.355Z,1.88
2019-05-25T12:31:31.051Z,1.95
2019-05-25T12:34:21.698Z,2.47
2019-05-25T12:36:54.144Z,3.95
2019-05-25T12:40:31.034Z,3.22
2019-05-25T12:45:36.846Z,3.60
2019-05-25T12:48:09.387Z,3.40
2019-05-25T12:50:41.698Z,3.63
2019-05-25T12:53:14.351Z,3.87
2019-05-25T12:55:46.667Z,3.60
2019-05-25T12:58:19.338Z,2.92
2019-05-25T13:00:56.506Z,3.20
2019-05-25T13:03:29.865Z,2.80
2019-05-25T13:08:34.031Z,3.10
2019-05-25T13:11:09.573Z,3.22
2019-05-25T13:13:40.701Z,2.65
2019-05-25T13:16:14.774Z,2.30
2019-05-25T13:18:49.057Z,2.85
2019-05-25T13:21:22.303Z,2.62
2019-05-25T13:23:54.854Z,2.50
2019-05-25T13:26:27.315Z,2.30
2019-05-25T13:28:59.367Z,1.70
2019-05-25T13:34:03.285Z,1.92
2019-05-25T13:36:37.658Z,2.47
2019-05-25T13:39:11.330Z,2.00
2019-05-25T13:41:43.517Z,2.15
2019-05-25T13:44:15.871Z,2.30
2019-05-25T13:46:48.485Z,2.72
2019-05-25T13:49:22.347Z,2.48
2019-05-25T13:51:54.982Z,2.85
2019-05-25T13:54:27.346Z,2.40
2019-05-25T13:57:00.040Z,2.77
2019-05-25T13:59:34.431Z,2.80
2019-05-25T14:02:07.062Z,2.80
2019-05-25T14:04:39.778Z,2.60
2019-05-25T14:07:12.688Z,2.90
2019-05-25T14:09:45.305Z,2.90
2019-05-25T14:12:17.642Z,1.67
2019-05-25T14:16:17.882Z,1.40
2019-05-25T14:18:50.376Z,1.70
2019-05-25T14:21:22.879Z,1.60
2019-05-25T14:23:55.434Z,1.42
2019-05-25T14:26:27.845Z,1.45
2019-05-25T14:29:00.592Z,1.40
2019-05-25T14:31:45.101Z,1.60
2019-05-25T14:34:08.521Z,1.65
2019-05-25T15:22:38.052Z,13.97
2019-05-25T15:25:13.012Z,13.75
2019-05-25T15:27:45.573Z,16.23
2019-05-25T15:30:19.156Z,14.13
2019-05-25T15:32:53.887Z,10.18
2019-05-25T15:35:27.106Z,9.20
2019-05-25T15:38:00.211Z,9.00
2019-05-25T15:40:32.962Z,13.00
2019-05-25T15:43:06.028Z,15.93
2019-05-25T15:45:38.539Z,13.03
2019-05-25T15:48:11.695Z,12.40
2019-05-25T15:50:54.441Z,13.00
2019-05-25T15:53:27.323Z,12.83
2019-05-25T15:56:01.553Z,11.67
2019-05-25T15:58:35.831Z,10.80
2019-05-25T16:01:08.922Z,12.17
2019-05-25T16:03:42.192Z,10.88
2019-05-25T16:06:15.200Z,9.95
2019-05-25T16:08:48.482Z,10.45
2019-05-25T16:42:32.892Z,14.13
2019-05-25T16:45:07.313Z,11.78
2019-05-25T16:47:39.724Z,11.85
2019-05-25T16:50:14.914Z,10.98
2019-05-25T16:52:49.699Z,11.12
2019-05-25T16:55:24.035Z,11.80
2019-05-25T16:57:56.524Z,13.97
2019-05-25T17:00:31.301Z,13.62
2019-05-25T17:03:03.810Z,13.40
2019-05-25T17:05:36.395Z,9.28
2019-05-25T17:10:41.437Z,11.75
2019-05-25T17:13:14.303Z,9.08
2019-05-25T17:15:48.513Z,6.83
2019-05-25T17:18:22.336Z,8.60
2019-05-25T17:20:59.853Z,6.93
2019-05-25T17:23:36.370Z,7.80
2019-05-25T17:26:10.070Z,8.88
2019-05-25T17:28:43.465Z,9.67
2019-05-25T17:31:19.346Z,7.45
2019-05-25T17:33:52.555Z,7.37
2019-05-25T17:36:25.319Z,8.08
2019-05-25T17:38:58.010Z,7.55
2019-05-25T17:41:30.958Z,7.57
2019-05-25T17:44:03.911Z,8.63
2019-05-25T17:46:36.665Z,9.18
2019-05-25T17:49:09.483Z,8.63
2019-05-25T17:51:42.302Z,10.38
2019-05-25T17:54:14.861Z,9.45
2019-05-25T17:56:47.374Z,9.05
2019-05-25T17:59:21.705Z,8.03
2019-05-25T18:01:55.357Z,9.38
2019-05-25T18:04:28.085Z,8.00
2019-05-25T18:07:00.718Z,10.25
2019-05-25T18:09:33.303Z,9.43
2019-05-25T18:12:06.385Z,9.37
2019-05-25T18:14:39.039Z,9.03
2019-05-25T18:17:11.715Z,10.72
2019-05-25T18:19:46.316Z,11.78
2019-05-25T18:22:18.869Z,11.20
2019-05-25T18:27:35.732Z,11.88
2019-05-25T18:30:11.637Z,13.45
2019-05-25T18:32:44.308Z,13.93
2019-05-25T18:35:17.067Z,13.20
2019-05-25T18:37:49.746Z,13.43
2019-05-25T18:40:22.709Z,14.50
2019-05-25T18:42:55.301Z,14.10
2019-05-25T18:45:28.298Z,15.75
2019-05-25T18:48:00.618Z,15.80
2019-05-25T18:50:33.299Z,14.98
2019-05-25T18:53:05.940Z,14.70
2019-05-25T18:58:12.977Z,16.48
2019-05-25T19:00:45.455Z,17.80
2019-05-25T19:03:18.292Z,16.00
2019-05-25T19:05:50.726Z,15.83
2019-05-25T19:11:10.495Z,17.90
2019-05-25T19:13:43.295Z,16.67
2019-05-25T19:16:15.661Z,18.10
2019-05-25T19:18:47.588Z,18.52
2019-05-25T19:23:51.765Z,20.32
2019-05-25T19:26:25.448Z,18.92
2019-05-25T19:28:58.309Z,21.87
2019-05-25T19:31:30.818Z,19.05
2019-05-25T19:34:03.686Z,21.37
2019-05-25T19:36:36.652Z,19.27
2019-05-25T19:39:10.677Z,20.82
2019-05-25T19:41:43.386Z,21.33
2019-05-25T19:44:16.289Z,22.20
2019-05-25T19:46:49.018Z,21.73
2019-05-25T19:49:21.633Z,24.35
2019-05-25T19:51:55.529Z,23.92
2019-05-25T19:54:28.567Z,25.10
2019-05-25T19:57:01.335Z,23.18
2019-05-25T19:59:33.829Z,24.45
2019-05-25T20:02:06.808Z,26.10
2019-05-25T20:04:40.970Z,27.22
2019-05-25T20:07:16.629Z,27.70
2019-05-25T20:09:49.806Z,30.35
2019-05-25T20:12:22.340Z,26.12
2019-05-25T20:14:55.496Z,28.40
2019-05-25T20:17:28.144Z,26.20
2019-05-25T20:20:00.819Z,27.43
2019-05-25T20:22:33.475Z,27.82
2019-05-25T20:25:10.056Z,25.95
2019-05-25T20:27:42.582Z,26.68
2019-05-25T20:30:15.313Z,29.75
2019-05-25T20:32:47.827Z,26.07
2019-05-25T20:35:32.250Z,24.70
2019-05-25T20:37:55.628Z,25.16
2019-05-25T20:40:28.250Z,29.80
2019-05-25T20:43:00.717Z,26.67
2019-05-25T20:47:43.642Z,24.37
2019-05-25T20:50:18.313Z,25.25
2019-05-25T20:52:50.868Z,23.65
2019-05-25T20:55:23.444Z,30.27
2019-05-25T20:57:56.302Z,26.68
2019-05-25T21:00:29.746Z,25.58
2019-05-25T21:03:06.367Z,24.57
2019-05-25T21:05:49.605Z,26.07
2019-05-25T21:08:12.845Z,24.27
2019-05-25T21:10:48.484Z,25.10
2019-05-25T21:13:22.316Z,24.92
2019-05-25T21:15:55.882Z,29.10
2019-05-25T21:18:28.359Z,33.55
2019-05-25T21:21:00.917Z,28.80
2019-05-25T21:23:34.861Z,28.40
2019-05-25T21:26:07.662Z,29.60
2019-05-25T21:28:40.497Z,32.40
2019-05-25T21:31:13.330Z,30.03
2019-05-25T21:36:19.770Z,27.98
2019-05-25T21:38:51.866Z,28.17
2019-05-25T21:41:26.315Z,27.22
2019-05-25T21:43:58.901Z,27.70
2019-05-25T21:48:23.709Z,30.35
2019-05-25T21:50:56.538Z,31.20
2019-05-25T21:53:29.264Z,29.10
2019-05-25T21:56:01.321Z,30.17
2019-05-25T21:58:36.881Z,31.07
2019-05-25T22:01:10.311Z,29.72
2019-05-25T22:03:42.666Z,32.20
2019-05-25T22:06:23.876Z,30.05
2019-05-25T22:08:49.586Z,30.05
2019-05-25T22:11:24.856Z,30.17
2019-05-25T22:13:57.552Z,33.38
2019-05-25T22:16:34.167Z,30.68
2019-05-25T22:19:06.702Z,30.83
2019-05-25T22:21:39.283Z,33.13
2019-05-25T22:24:20.293Z,33.60
2019-05-25T22:26:54.703Z,32.45
2019-05-25T22:29:28.291Z,32.98
2019-05-25T22:32:00.975Z,43.35
2019-05-25T22:34:36.343Z,36.05
2019-05-25T22:37:11.452Z,36.50
2019-05-25T22:39:57.586Z,35.10
2019-05-25T22:42:58.826Z,34.32
2019-05-25T22:45:58.901Z,32.03
2019-05-25T22:48:34.672Z,31.58
2019-05-25T22:51:08.989Z,30.45
2019-05-25T22:53:41.878Z,31.70
2019-05-25T22:56:17.338Z,30.10
2019-05-25T22:58:57.653Z,32.50
2019-05-25T23:01:32.126Z,30.70
2019-05-25T23:04:08.525Z,33.00
2019-05-25T23:06:57.156Z,33.33
2019-05-25T23:09:25.700Z,36.17
2019-05-25T23:14:29.824Z,29.95
2019-05-25T23:17:03.014Z,30.23
2019-05-25T23:19:35.867Z,29.80
2019-05-25T23:22:08.507Z,33.00
2019-05-25T23:24:42.523Z,30.57
2019-05-25T23:27:21.420Z,33.58
2019-05-25T23:30:03.298Z,32.03
2019-05-25T23:32:36.050Z,34.67
2019-05-25T23:35:19.299Z,33.88
2019-05-25T23:37:51.685Z,32.45
2019-05-25T23:40:26.291Z,33.95
2019-05-25T23:43:00.773Z,33.63
2019-05-25T23:45:34.355Z,38.43
2019-05-25T23:48:08.587Z,33.98
2019-05-25T23:50:40.878Z,33.57
2019-05-25T23:53:13.356Z,35.25
2019-05-25T23:55:48.410Z,33.33
2019-05-25T23:58:22.381Z,37.38
